createdAt,value
2018-03-19T00:00:49.085Z,70.83
2018-03-19T00:03:17.543Z,70.90
2018-03-19T00:05:45.872Z,71.15
2018-03-19T00:08:14.152Z,71.20
2018-03-19T00:10:43.193Z,71.25
2018-03-19T00:13:12.080Z,71.24
2018-03-19T00:15:40.880Z,71.35
2018-03-19T00:18:09.961Z,72.00
2018-03-19T00:20:38.260Z,72.17
2018-03-19T00:23:06.640Z,71.45
2018-03-19T00:25:34.916Z,71.67
2018-03-19T00:28:03.253Z,72.59
2018-03-19T00:30:32.304Z,72.24
2018-03-19T00:33:00.580Z,71.90
2018-03-19T00:35:28.864Z,72.23
2018-03-19T00:37:57.231Z,72.32
2018-03-19T00:40:26.268Z,72.87
2018-03-19T00:42:55.507Z,72.87
2018-03-19T00:45:23.810Z,73.29
2018-03-19T00:47:52.084Z,72.70
2018-03-19T00:50:20.444Z,72.94
2018-03-19T00:52:48.738Z,72.22
2018-03-19T00:55:17.020Z,72.53
2018-03-19T00:57:45.387Z,73.07
2018-03-19T01:00:13.649Z,72.62
2018-03-19T01:02:42.677Z,72.80
2018-03-19T01:05:11.033Z,72.55
2018-03-19T01:07:39.428Z,73.19
2018-03-19T01:10:08.529Z,72.08
2018-03-19T01:12:36.812Z,72.29
2018-03-19T01:15:05.121Z,71.89
2018-03-19T01:17:33.428Z,72.26
2018-03-19T01:20:01.737Z,72.61
2018-03-19T01:22:30.108Z,72.45
2018-03-19T01:24:58.393Z,72.43
2018-03-19T01:27:26.860Z,72.91
2018-03-19T01:29:55.252Z,72.68
2018-03-19T01:32:23.540Z,73.10
2018-03-19T01:34:52.257Z,72.68
2018-03-19T01:37:20.549Z,73.21
2018-03-19T01:39:49.608Z,72.48
2018-03-19T01:42:17.897Z,73.00
2018-03-19T01:44:46.168Z,73.46
2018-03-19T01:47:14.439Z,73.12
2018-03-19T01:49:43.037Z,73.57
2018-03-19T01:52:11.320Z,72.80
2018-03-19T01:54:39.664Z,72.49
2018-03-19T01:57:07.956Z,72.38
2018-03-19T01:59:36.224Z,72.83
2018-03-19T02:02:04.600Z,73.31
2018-03-19T02:04:32.889Z,73.49
2018-03-19T02:07:01.200Z,73.20
2018-03-19T02:09:29.748Z,73.17
2018-03-19T02:11:58.128Z,73.65
2018-03-19T02:14:26.525Z,73.60
2018-03-19T02:16:55.012Z,73.62
2018-03-19T02:19:23.601Z,74.24
2018-03-19T02:21:51.880Z,73.53
2018-03-19T02:24:20.937Z,73.31
2018-03-19T02:26:49.220Z,73.54
2018-03-19T02:29:18.316Z,73.61
2018-03-19T02:31:47.333Z,72.48
2018-03-19T02:34:15.832Z,72.86
2018-03-19T02:36:44.112Z,72.34
2018-03-19T02:39:12.609Z,72.21
2018-03-19T02:41:41.956Z,72.17
2018-03-19T02:44:10.697Z,72.43
2018-03-19T02:46:39.744Z,71.59
2018-03-19T02:49:08.120Z,71.72
2018-03-19T02:51:37.161Z,71.28
2018-03-19T02:54:05.628Z,70.92
2018-03-19T02:56:34.459Z,69.89
2018-03-19T02:59:02.746Z,70.09
2018-03-19T03:01:31.015Z,70.07
2018-03-19T03:03:59.436Z,69.54
2018-03-19T03:06:27.708Z,69.41
2018-03-19T03:08:55.976Z,68.71
2018-03-19T03:11:24.664Z,68.81
2018-03-19T03:13:53.377Z,68.43
2018-03-19T03:16:21.653Z,67.36
2018-03-19T03:18:50.062Z,67.60
2018-03-19T03:21:19.024Z,67.45
2018-03-19T03:23:47.333Z,67.03
2018-03-19T03:26:15.607Z,67.44
2018-03-19T03:28:43.890Z,67.36
2018-03-19T03:31:13.249Z,67.76
2018-03-19T03:33:41.516Z,66.94
2018-03-19T03:36:09.841Z,67.98
2018-03-19T03:38:39.636Z,67.07
2018-03-19T03:41:08.835Z,67.46
2018-03-19T03:43:37.699Z,67.73
2018-03-19T03:46:06.079Z,67.15
2018-03-19T03:48:34.407Z,67.94
2018-03-19T03:51:03.451Z,67.91
2018-03-19T03:53:32.417Z,67.86
2018-03-19T03:56:02.384Z,67.87
2018-03-19T03:58:30.688Z,68.01
2018-03-19T04:01:00.876Z,68.19
2018-03-19T04:03:29.141Z,68.77
2018-03-19T04:05:57.451Z,69.02
2018-03-19T04:08:26.356Z,69.29
2018-03-19T04:10:54.641Z,69.43
2018-03-19T04:13:23.789Z,69.16
2018-03-19T04:15:52.236Z,69.38
2018-03-19T04:18:21.371Z,69.45
2018-03-19T04:20:49.687Z,69.59
2018-03-19T04:23:17.965Z,69.38
2018-03-19T04:25:47.846Z,69.47
2018-03-19T04:28:16.144Z,70.22
2018-03-19T04:30:44.663Z,69.58
2018-03-19T04:33:13.740Z,69.38
2018-03-19T04:35:42.037Z,70.63
2018-03-19T04:38:11.078Z,70.46
2018-03-19T04:40:39.360Z,70.22
2018-03-19T04:43:07.733Z,70.49
2018-03-19T04:45:36.092Z,70.11
2018-03-19T04:48:04.382Z,70.02
2018-03-19T04:50:32.695Z,70.72
2018-03-19T04:53:01.174Z,70.42
2018-03-19T04:55:30.184Z,70.68
2018-03-19T04:57:58.456Z,70.53
2018-03-19T05:00:27.193Z,71.20
2018-03-19T05:02:55.572Z,71.20
2018-03-19T05:05:23.849Z,72.04
2018-03-19T05:07:52.295Z,71.75
2018-03-19T05:10:20.592Z,71.99
2018-03-19T05:12:49.677Z,72.14
2018-03-19T05:15:18.810Z,72.07
2018-03-19T05:17:47.081Z,72.25
2018-03-19T05:20:15.389Z,73.18
2018-03-19T05:22:44.073Z,72.59
2018-03-19T05:25:12.340Z,72.38
2018-03-19T05:27:40.624Z,72.67
2018-03-19T05:30:08.919Z,72.61
2018-03-19T05:32:37.218Z,72.84
2018-03-19T05:35:05.496Z,72.72
2018-03-19T05:37:33.800Z,73.08
2018-03-19T05:40:02.085Z,73.34
2018-03-19T05:42:30.363Z,73.70
2018-03-19T05:44:58.665Z,73.77
2018-03-19T05:47:27.178Z,73.83
2018-03-19T05:49:56.109Z,72.79
2018-03-19T05:52:25.258Z,73.55
2018-03-19T05:54:53.549Z,73.39
2018-03-19T05:57:21.847Z,73.41
2018-03-19T05:59:50.980Z,73.33
2018-03-19T06:02:19.596Z,73.05
2018-03-19T06:04:48.314Z,72.57
2018-03-19T06:07:17.469Z,72.44
2018-03-19T06:09:45.744Z,72.27
2018-03-19T06:12:14.132Z,72.01
2018-03-19T06:14:42.425Z,71.13
2018-03-19T06:17:10.692Z,71.10
2018-03-19T06:19:39.014Z,70.12
2018-03-19T06:22:08.057Z,69.23
2018-03-19T06:24:36.348Z,69.45
2018-03-19T06:27:04.654Z,69.24
2018-03-19T06:29:34.429Z,68.33
2018-03-19T06:32:02.701Z,67.91
2018-03-19T06:34:31.011Z,67.92
2018-03-19T06:36:59.605Z,65.52
2018-03-19T06:39:28.657Z,65.63
2018-03-19T06:41:56.994Z,66.75
2018-03-19T06:44:26.044Z,65.98
2018-03-19T06:46:54.828Z,65.76
2018-03-19T06:49:23.120Z,65.17
2018-03-19T06:51:51.709Z,64.83
2018-03-19T06:54:20.748Z,64.77
2018-03-19T06:56:49.868Z,63.15
2018-03-19T06:59:18.160Z,62.71
2018-03-19T07:01:46.429Z,62.53
2018-03-19T07:04:14.748Z,61.70
2018-03-19T07:06:43.899Z,62.71
2018-03-19T07:09:12.356Z,61.21
2018-03-19T07:11:41.277Z,60.31
2018-03-19T07:14:09.599Z,60.29
2018-03-19T07:16:37.923Z,60.89
2018-03-19T07:19:06.317Z,60.44
2018-03-19T07:21:34.588Z,61.50
2018-03-19T07:24:02.877Z,59.04
2018-03-19T07:26:31.344Z,58.96
2018-03-19T07:28:59.615Z,58.32
2018-03-19T07:31:28.075Z,57.89
2018-03-19T07:33:57.321Z,58.75
2018-03-19T07:36:25.692Z,58.90
2018-03-19T07:38:54.390Z,58.12
2018-03-19T07:41:22.790Z,56.58
2018-03-19T07:43:51.089Z,55.82
2018-03-19T07:46:20.448Z,55.72
2018-03-19T07:48:49.240Z,55.31
2018-03-19T07:51:18.353Z,53.70
2018-03-19T07:53:46.680Z,54.36
2018-03-19T07:56:15.029Z,53.76
2018-03-19T07:58:43.331Z,53.64
2018-03-19T08:01:12.924Z,52.73
2018-03-19T08:03:41.377Z,50.81
2018-03-19T08:06:10.039Z,50.73
2018-03-19T08:08:38.427Z,50.77
2018-03-19T08:11:06.704Z,50.57
2018-03-19T08:13:35.002Z,51.05
2018-03-19T08:16:03.313Z,49.44
2018-03-19T08:18:32.373Z,48.52
2018-03-19T08:21:00.645Z,48.65
2018-03-19T08:23:28.980Z,48.32
2018-03-19T08:25:57.328Z,47.22
2018-03-19T08:28:25.564Z,48.91
2018-03-19T08:30:54.200Z,46.20
2018-03-19T08:33:23.258Z,46.41
2018-03-19T08:35:51.528Z,44.98
2018-03-19T08:38:19.819Z,43.76
2018-03-19T08:40:48.106Z,45.13
2018-03-19T08:43:16.421Z,45.13
2018-03-19T08:45:45.890Z,40.25
2018-03-19T08:48:14.164Z,41.79
2018-03-19T08:50:42.687Z,41.03
2018-03-19T08:53:10.988Z,39.71
2018-03-19T08:55:40.533Z,40.50
2018-03-19T08:58:08.807Z,40.92
2018-03-19T09:00:37.251Z,41.00
2018-03-19T09:03:05.752Z,38.82
2018-03-19T09:05:34.204Z,38.24
2018-03-19T09:08:03.109Z,39.69
2018-03-19T09:10:31.422Z,38.30
2018-03-19T09:12:59.728Z,38.82
2018-03-19T09:15:28.788Z,38.05
2018-03-19T09:17:57.148Z,38.00
2018-03-19T09:20:25.900Z,38.17
2018-03-19T09:22:54.944Z,37.03
2018-03-19T09:25:23.216Z,37.45
2018-03-19T09:27:51.535Z,37.53
2018-03-19T09:30:19.921Z,35.59
2018-03-19T09:32:48.988Z,35.12
2018-03-19T09:35:17.292Z,34.57
2018-03-19T09:37:45.560Z,34.17
2018-03-19T09:40:14.706Z,34.88
2018-03-19T09:42:44.642Z,36.53
2018-03-19T09:45:12.921Z,35.61
2018-03-19T09:47:41.203Z,35.13
2018-03-19T09:50:09.518Z,38.27
2018-03-19T09:52:38.668Z,34.57
2018-03-19T09:55:07.759Z,34.32
2018-03-19T09:57:36.557Z,34.67
2018-03-19T10:00:04.840Z,32.54
2018-03-19T10:02:33.120Z,33.22
2018-03-19T10:05:01.489Z,32.80
2018-03-19T10:07:30.240Z,34.32
2018-03-19T10:09:59.306Z,33.17
2018-03-19T10:12:28.270Z,33.25
2018-03-19T10:14:57.917Z,34.63
2018-03-19T10:17:26.816Z,33.48
2018-03-19T10:26:41.488Z,32.70
2018-03-19T10:29:09.748Z,32.63
2018-03-19T10:31:38.020Z,33.09
2018-03-19T10:34:06.570Z,32.15
2018-03-19T10:36:35.628Z,31.94
2018-03-19T10:39:03.900Z,31.74
2018-03-19T10:41:32.260Z,31.49
2018-03-19T10:44:01.636Z,32.30
2018-03-19T10:46:30.764Z,30.70
2018-03-19T10:48:59.023Z,30.79
2018-03-19T10:51:27.297Z,30.92
2018-03-19T10:53:55.585Z,30.76
2018-03-19T10:56:23.844Z,31.08
2018-03-19T10:58:53.380Z,30.96
2018-03-19T11:01:43.187Z,30.77
2018-03-19T11:04:11.480Z,30.34
2018-03-19T11:06:45.709Z,30.29
2018-03-19T11:09:19.568Z,30.16
2018-03-19T11:11:47.854Z,30.40
2018-03-19T11:14:16.124Z,30.04
2018-03-19T11:16:44.401Z,30.23
2018-03-19T11:19:12.796Z,29.61
2018-03-19T11:21:41.282Z,29.60
2018-03-19T11:24:10.278Z,30.05
2018-03-19T11:26:38.544Z,30.19
2018-03-19T11:29:06.856Z,29.44
2018-03-19T11:31:36.049Z,28.63
2018-03-19T11:34:04.315Z,29.41
2018-03-19T11:36:32.678Z,29.54
2018-03-19T11:39:01.148Z,30.14
2018-03-19T11:41:29.442Z,30.28
2018-03-19T11:43:58.056Z,28.24
2018-03-19T11:46:26.608Z,30.17
2018-03-19T11:48:55.583Z,30.46
2018-03-19T11:51:23.883Z,29.85
2018-03-19T11:53:52.164Z,31.05
2018-03-19T11:56:20.456Z,30.12
2018-03-19T11:58:49.145Z,29.30
2018-03-19T12:01:17.404Z,28.81
2018-03-19T12:03:45.707Z,28.71
2018-03-19T12:06:14.834Z,29.14
2018-03-19T12:08:44.046Z,28.36
2018-03-19T12:11:12.348Z,28.63
2018-03-19T12:13:40.676Z,28.83
2018-03-19T12:16:08.949Z,28.55
2018-03-19T12:18:37.236Z,28.64
2018-03-19T12:21:06.390Z,28.60
2018-03-19T12:23:34.653Z,28.25
2018-03-19T12:26:03.033Z,28.14
2018-03-19T12:28:31.298Z,28.98
2018-03-19T12:30:59.896Z,29.55
2018-03-19T12:33:28.201Z,28.77
2018-03-19T12:35:56.580Z,28.54
2018-03-19T12:38:25.721Z,28.06
2018-03-19T12:40:54.955Z,28.15
2018-03-19T12:43:23.223Z,28.00
2018-03-19T12:45:51.513Z,25.61
2018-03-19T12:48:20.820Z,21.99
2018-03-19T12:50:49.089Z,20.49
2018-03-19T12:53:17.801Z,20.82
2018-03-19T12:55:46.133Z,17.96
2018-03-19T12:58:14.408Z,16.63
2018-03-19T13:00:43.578Z,15.22
2018-03-19T13:03:13.461Z,16.30
2018-03-19T13:05:42.345Z,16.96
2018-03-19T13:08:11.086Z,15.34
2018-03-19T13:10:40.892Z,14.73
2018-03-19T13:13:10.053Z,15.63
2018-03-19T13:15:38.344Z,15.39
2018-03-19T13:18:07.518Z,15.23
2018-03-19T13:20:35.754Z,16.26
2018-03-19T13:23:04.808Z,15.70
2018-03-19T13:25:33.108Z,15.21
2018-03-19T13:28:02.114Z,14.08
2018-03-19T13:30:31.169Z,13.18
2018-03-19T13:32:59.526Z,13.34
2018-03-19T13:35:27.925Z,13.15
2018-03-19T13:37:56.321Z,13.94
2018-03-19T13:40:24.608Z,14.11
2018-03-19T13:42:52.909Z,13.05
2018-03-19T13:45:22.286Z,12.22
2018-03-19T13:47:50.605Z,11.95
2018-03-19T13:50:19.636Z,11.81
2018-03-19T13:52:48.004Z,12.69
2018-03-19T13:55:16.362Z,11.20
2018-03-19T13:57:46.110Z,12.09
2018-03-19T14:00:14.416Z,13.13
2018-03-19T14:02:42.929Z,13.26
2018-03-19T14:05:12.312Z,12.00
2018-03-19T14:07:40.803Z,12.81
2018-03-19T14:10:09.910Z,11.20
2018-03-19T14:12:38.140Z,12.71
2018-03-19T14:15:06.662Z,12.50
2018-03-19T14:17:36.606Z,13.25
2018-03-19T14:20:04.906Z,12.26
2018-03-19T14:22:33.182Z,11.20
2018-03-19T14:25:01.480Z,12.22
2018-03-19T14:27:29.837Z,12.03
2018-03-19T14:29:58.245Z,11.62
2018-03-19T14:32:26.549Z,12.84
2018-03-19T14:34:55.649Z,12.23
2018-03-19T14:37:24.689Z,12.80
2018-03-19T14:39:53.576Z,11.18
2018-03-19T14:42:23.368Z,12.35
2018-03-19T14:44:53.224Z,15.21
2018-03-19T14:47:22.284Z,12.28
2018-03-19T14:49:50.892Z,11.65
2018-03-19T14:52:19.197Z,12.95
2018-03-19T14:54:47.496Z,13.25
2018-03-19T14:57:16.640Z,13.22
2018-03-19T14:59:45.932Z,11.70
2018-03-19T15:02:15.608Z,13.33
2018-03-19T15:04:44.686Z,12.82
2018-03-19T15:07:12.992Z,12.27
2018-03-19T15:09:42.054Z,12.96
2018-03-19T15:12:10.412Z,14.90
2018-03-19T15:14:38.712Z,13.70
2018-03-19T15:17:07.885Z,14.16
2018-03-19T15:19:37.715Z,13.70
2018-03-19T15:22:06.696Z,13.39
2018-03-19T15:24:35.089Z,12.83
2018-03-19T15:27:03.384Z,14.42
2018-03-19T15:29:33.239Z,15.40
2018-03-19T15:32:01.561Z,15.06
2018-03-19T15:34:29.941Z,13.93
2018-03-19T15:36:58.243Z,12.76
2018-03-19T15:39:26.531Z,13.17
2018-03-19T15:41:55.609Z,12.70
2018-03-19T15:44:24.096Z,14.15
2018-03-19T15:46:52.410Z,14.33
2018-03-19T15:49:20.703Z,15.93
2018-03-19T15:51:48.959Z,17.21
2018-03-19T15:54:17.272Z,18.81
2018-03-19T15:56:45.564Z,19.52
2018-03-19T15:59:13.859Z,19.56
2018-03-19T16:01:42.136Z,20.85
2018-03-19T16:04:11.110Z,21.22
2018-03-19T16:06:39.479Z,21.67
2018-03-19T16:09:07.756Z,22.70
2018-03-19T16:11:36.193Z,23.51
2018-03-19T16:14:05.267Z,23.38
2018-03-19T16:16:33.668Z,23.46
2018-03-19T16:19:02.721Z,24.29
2018-03-19T16:21:31.023Z,24.61
2018-03-19T16:23:59.300Z,25.41
2018-03-19T16:26:28.364Z,24.89
2018-03-19T16:28:56.945Z,25.17
2018-03-19T16:31:25.213Z,24.96
2018-03-19T16:33:53.513Z,25.68
2018-03-19T16:36:21.840Z,25.43
2018-03-19T16:38:50.898Z,24.84
2018-03-19T16:41:19.259Z,26.15
2018-03-19T16:43:47.592Z,25.51
2018-03-19T16:46:16.679Z,25.92
2018-03-19T16:48:45.780Z,25.53
2018-03-19T16:51:14.836Z,25.66
2018-03-19T16:53:43.128Z,26.18
2018-03-19T16:56:11.412Z,26.99
2018-03-19T16:58:39.711Z,26.84
2018-03-19T17:01:08.963Z,27.48
2018-03-19T17:03:37.350Z,27.22
2018-03-19T17:06:05.632Z,27.80
2018-03-19T17:08:34.256Z,28.09
2018-03-19T17:11:03.286Z,28.93
2018-03-19T17:13:31.568Z,29.49
2018-03-19T17:15:59.875Z,28.36
2018-03-19T17:18:28.165Z,28.85
2018-03-19T17:20:57.174Z,28.92
2018-03-19T17:23:26.569Z,29.10
2018-03-19T17:25:55.261Z,29.68
2018-03-19T17:28:24.294Z,30.40
2018-03-19T17:30:52.685Z,30.86
2018-03-19T17:33:21.010Z,32.14
2018-03-19T17:35:49.276Z,32.46
2018-03-19T17:38:18.241Z,33.43
2018-03-19T17:40:46.612Z,33.77
2018-03-19T17:43:14.995Z,35.67
2018-03-19T17:45:43.272Z,37.53
2018-03-19T17:48:11.571Z,38.21
2018-03-19T17:50:39.956Z,38.75
2018-03-19T17:53:08.548Z,40.20
2018-03-19T17:55:36.831Z,40.93
2018-03-19T17:58:05.180Z,41.68
2018-03-19T18:00:33.448Z,42.37
2018-03-19T18:03:02.174Z,42.51
2018-03-19T18:05:30.492Z,42.99
2018-03-19T18:07:59.225Z,43.42
2018-03-19T18:10:27.750Z,43.94
2018-03-19T18:12:56.808Z,44.25
2018-03-19T18:15:25.167Z,44.65
2018-03-19T18:17:53.462Z,45.00
2018-03-19T18:20:21.764Z,45.53
2018-03-19T18:22:50.550Z,45.61
2018-03-19T18:25:19.482Z,46.37
2018-03-19T18:27:48.396Z,46.17
2018-03-19T18:30:17.395Z,46.87
2018-03-19T18:32:45.656Z,47.41
2018-03-19T18:35:14.065Z,48.23
2018-03-19T18:37:42.426Z,48.36
2018-03-19T18:40:10.829Z,48.42
2018-03-19T18:42:39.331Z,49.11
2018-03-19T18:45:07.654Z,48.96
2018-03-19T18:47:36.017Z,49.29
2018-03-19T18:50:04.338Z,49.04
2018-03-19T18:52:32.728Z,49.61
2018-03-19T18:55:01.519Z,49.63
2018-03-19T18:57:30.209Z,49.76
2018-03-19T18:59:58.493Z,49.76
2018-03-19T19:02:26.774Z,49.95
2018-03-19T19:04:55.620Z,49.76
2018-03-19T19:07:24.431Z,49.94
2018-03-19T19:09:52.717Z,49.93
2018-03-19T19:12:21.009Z,50.19
2018-03-19T19:14:49.332Z,50.48
2018-03-19T19:17:17.637Z,50.22
2018-03-19T19:19:46.037Z,49.63
2018-03-19T19:22:14.356Z,48.97
2018-03-19T19:24:43.417Z,47.44
2018-03-19T19:27:11.903Z,46.57
2018-03-19T19:29:40.209Z,46.22
2018-03-19T19:32:09.270Z,47.23
2018-03-19T19:34:37.627Z,46.48
2018-03-19T19:37:06.215Z,46.75
2018-03-19T19:39:34.521Z,47.74
2018-03-19T19:42:03.522Z,48.16
2018-03-19T19:44:32.662Z,48.45
2018-03-19T19:47:00.957Z,48.48
2018-03-19T19:49:29.232Z,47.43
2018-03-19T19:51:57.632Z,46.72
2018-03-19T19:54:26.104Z,46.45
2018-03-19T19:56:54.940Z,46.07
2018-03-19T19:59:24.776Z,46.47
2018-03-19T20:01:53.585Z,47.04
2018-03-19T20:04:21.903Z,46.27
2018-03-19T20:06:50.366Z,47.02
2018-03-19T20:09:18.669Z,46.47
2018-03-19T20:11:46.977Z,47.16
2018-03-19T20:14:16.088Z,46.26
2018-03-19T20:16:44.372Z,46.14
2018-03-19T20:19:12.664Z,45.40
2018-03-19T20:21:42.605Z,44.87
2018-03-19T20:24:11.166Z,45.51
2018-03-19T20:26:39.487Z,44.79
2018-03-19T20:29:07.774Z,44.39
2018-03-19T20:31:36.932Z,44.74
2018-03-19T20:34:05.218Z,44.81
2018-03-19T20:36:33.617Z,44.80
2018-03-19T20:39:01.989Z,44.91
2018-03-19T20:41:30.319Z,44.88
2018-03-19T20:43:58.616Z,45.09
2018-03-19T20:46:26.907Z,45.67
2018-03-19T20:48:55.810Z,45.12
2018-03-19T20:51:24.885Z,45.40
2018-03-19T20:53:53.257Z,46.10
2018-03-19T20:56:21.549Z,46.79
2018-03-19T20:58:49.881Z,47.94
2018-03-19T21:01:19.329Z,48.46
2018-03-19T21:03:48.345Z,49.54
2018-03-19T21:06:16.656Z,50.88
2018-03-19T21:08:45.721Z,52.92
2018-03-19T21:11:14.803Z,54.72
2018-03-19T21:13:43.550Z,55.28
2018-03-19T21:16:11.921Z,58.54
2018-03-19T21:18:40.964Z,59.78
2018-03-19T21:21:09.362Z,60.90
2018-03-19T21:23:37.741Z,61.28
2018-03-19T21:26:06.040Z,62.42
2018-03-19T21:28:35.305Z,62.86
2018-03-19T21:31:03.594Z,63.17
2018-03-19T21:33:31.878Z,63.56
2018-03-19T21:36:01.280Z,63.79
2018-03-19T21:38:29.574Z,64.54
2018-03-19T21:40:57.857Z,65.55
2018-03-19T21:43:27.054Z,65.69
2018-03-19T21:45:55.816Z,65.94
2018-03-19T21:48:24.181Z,66.28
2018-03-19T21:50:52.465Z,66.47
2018-03-19T21:53:20.765Z,66.92
2018-03-19T21:55:50.004Z,67.77
2018-03-19T21:58:18.348Z,67.61
2018-03-19T22:00:46.636Z,68.77
2018-03-19T22:03:16.153Z,69.03
2018-03-19T22:05:45.246Z,69.83
2018-03-19T22:08:14.319Z,70.10
2018-03-19T22:10:43.778Z,71.24
2018-03-19T22:13:12.364Z,71.80
2018-03-19T22:15:40.669Z,72.82
2018-03-19T22:18:08.946Z,73.25
2018-03-19T22:20:37.257Z,73.97
2018-03-19T22:23:05.780Z,74.20
2018-03-19T22:25:34.056Z,74.25
2018-03-19T22:28:02.339Z,74.76
2018-03-19T22:30:33.324Z,75.31
2018-03-19T22:33:01.670Z,75.82
2018-03-19T22:35:30.282Z,76.92
2018-03-19T22:37:59.148Z,77.43
2018-03-19T22:40:27.658Z,77.45
2018-03-19T22:42:55.998Z,78.55
2018-03-19T22:45:24.310Z,79.06
2018-03-19T22:47:53.525Z,78.66
2018-03-19T22:50:21.809Z,79.41
2018-03-19T22:52:50.868Z,79.71
2018-03-19T22:55:19.147Z,80.47
2018-03-19T22:57:47.727Z,80.94
2018-03-19T23:00:16.018Z,81.67
2018-03-19T23:02:44.292Z,82.40
2018-03-19T23:05:28.047Z,83.36
2018-03-19T23:07:56.364Z,83.82
2018-03-19T23:10:26.181Z,83.97
2018-03-19T23:12:54.969Z,84.56
2018-03-19T23:15:24.659Z,84.73
2018-03-19T23:17:54.028Z,85.15
2018-03-19T23:20:22.707Z,85.69
2018-03-19T23:22:50.976Z,85.43
2018-03-19T23:25:19.272Z,85.44
2018-03-19T23:27:48.686Z,85.33
2018-03-19T23:30:16.953Z,85.65
2018-03-19T23:32:45.229Z,86.49
2018-03-19T23:35:13.547Z,86.68
2018-03-19T23:37:42.648Z,87.38
2018-03-19T23:40:12.276Z,87.12
2018-03-19T23:42:40.572Z,87.36
2018-03-19T23:45:08.948Z,87.37
2018-03-19T23:47:38.799Z,87.51
2018-03-19T23:50:08.079Z,87.84
2018-03-19T23:52:36.369Z,87.97
2018-03-19T23:55:04.863Z,87.71
2018-03-19T23:57:33.949Z,88.22
